sensor_id;sensor_type;location;lat;lon;timestamp;temperature;humidity
31653;DHT22;18261;53.648;9.910;2024-01-25T00:01:19;8.20;99.90
31653;DHT22;18261;53.648;9.910;2024-01-25T00:03:44;8.20;99.90
31653;DHT22;18261;53.648;9.910;2024-01-25T00:06:10;8.20;99.90
31653;DHT22;18261;53.648;9.910;2024-01-25T00:08:35;8.10;99.90
31653;DHT22;18261;53.648;9.910;2024-01-25T00:11:02;8.20;99.90
31653;DHT22;18261;53.648;9.910;2024-01-25T00:13:28;8.20;99.90
31653;DHT22;18261;53.648;9.910;2024-01-25T00:15:53;8.20;99.90
31653;DHT22;18261;53.648;9.910;2024-01-25T00:18:19;8.10;99.90
31653;DHT22;18261;53.648;9.910;2024-01-25T00:20:45;8.10;99.90
31653;DHT22;18261;53.648;9.910;2024-01-25T00:23:11;8.10;99.90
31653;DHT22;18261;53.648;9.910;2024-01-25T00:25:36;8.10;99.90
31653;DHT22;18261;53.648;9.910;2024-01-25T00:28:02;8.10;99.90
31653;DHT22;18261;53.648;9.910;2024-01-25T00:30:28;8.10;99.90
31653;DHT22;18261;53.648;9.910;2024-01-25T00:32:53;8.00;99.90
31653;DHT22;18261;53.648;9.910;2024-01-25T00:35:19;8.10;99.90
31653;DHT22;18261;53.648;9.910;2024-01-25T00:37:45;8.10;99.90
31653;DHT22;18261;53.648;9.910;2024-01-25T00:40:11;8.10;99.90
31653;DHT22;18261;53.648;9.910;2024-01-25T00:42:43;8.10;99.90
31653;DHT22;18261;53.648;9.910;2024-01-25T00:45:09;8.10;99.90
31653;DHT22;18261;53.648;9.910;2024-01-25T00:47:35;8.10;99.90
31653;DHT22;18261;53.648;9.910;2024-01-25T00:50:01;8.10;99.90
31653;DHT22;18261;53.648;9.910;2024-01-25T00:52:27;8.00;99.90
31653;DHT22;18261;53.648;9.910;2024-01-25T00:54:53;8.00;99.90
31653;DHT22;18261;53.648;9.910;2024-01-25T00:57:19;8.00;99.90
31653;DHT22;18261;53.648;9.910;2024-01-25T00:59:45;8.10;99.90
31653;DHT22;18261;53.648;9.910;2024-01-25T01:02:12;8.10;99.90
31653;DHT22;18261;53.648;9.910;2024-01-25T01:04:40;8.10;99.90
31653;DHT22;18261;53.648;9.910;2024-01-25T01:07:06;8.10;99.90
31653;DHT22;18261;53.648;9.910;2024-01-25T01:09:32;8.10;99.90
31653;DHT22;18261;53.648;9.910;2024-01-25T01:11:58;8.10;99.90
31653;DHT22;18261;53.648;9.910;2024-01-25T01:14:24;8.10;99.90
31653;DHT22;18261;53.648;9.910;2024-01-25T01:16:49;8.10;99.90
31653;DHT22;18261;53.648;9.910;2024-01-25T01:19:16;8.10;99.90
31653;DHT22;18261;53.648;9.910;2024-01-25T01:21:42;8.10;99.90
31653;DHT22;18261;53.648;9.910;2024-01-25T01:24:09;8.10;99.90
31653;DHT22;18261;53.648;9.910;2024-01-25T01:26:35;8.10;99.90
31653;DHT22;18261;53.648;9.910;2024-01-25T01:29:01;8.10;99.90
31653;DHT22;18261;53.648;9.910;2024-01-25T01:31:27;8.10;99.90
31653;DHT22;18261;53.648;9.910;2024-01-25T01:33:53;8.00;99.90
31653;DHT22;18261;53.648;9.910;2024-01-25T01:36:19;8.00;99.90
31653;DHT22;18261;53.648;9.910;2024-01-25T01:38:44;8.10;99.90
31653;DHT22;18261;53.648;9.910;2024-01-25T01:41:10;8.00;99.90
31653;DHT22;18261;53.648;9.910;2024-01-25T01:43:39;8.00;99.90
31653;DHT22;18261;53.648;9.910;2024-01-25T01:46:35;8.00;99.90
31653;DHT22;18261;53.648;9.910;2024-01-25T01:49:03;8.10;99.90
31653;DHT22;18261;53.648;9.910;2024-01-25T01:51:31;8.10;99.90
31653;DHT22;18261;53.648;9.910;2024-01-25T01:53:57;8.10;99.90
31653;DHT22;18261;53.648;9.910;2024-01-25T01:56:24;8.10;99.90
31653;DHT22;18261;53.648;9.910;2024-01-25T01:58:52;8.10;99.90
31653;DHT22;18261;53.648;9.910;2024-01-25T02:01:19;8.10;99.90
31653;DHT22;18261;53.648;9.910;2024-01-25T02:03:45;8.20;99.90
31653;DHT22;18261;53.648;9.910;2024-01-25T02:06:11;8.20;99.90
31653;DHT22;18261;53.648;9.910;2024-01-25T02:08:37;8.20;99.90
31653;DHT22;18261;53.648;9.910;2024-01-25T02:11:02;8.20;99.90
31653;DHT22;18261;53.648;9.910;2024-01-25T02:13:28;8.20;99.90
31653;DHT22;18261;53.648;9.910;2024-01-25T02:15:53;8.20;99.90
31653;DHT22;18261;53.648;9.910;2024-01-25T02:18:19;8.20;99.90
31653;DHT22;18261;53.648;9.910;2024-01-25T02:20:45;8.20;99.90
31653;DHT22;18261;53.648;9.910;2024-01-25T02:23:10;8.30;99.90
31653;DHT22;18261;53.648;9.910;2024-01-25T02:25:36;8.30;99.90
31653;DHT22;18261;53.648;9.910;2024-01-25T02:28:01;8.30;99.90
31653;DHT22;18261;53.648;9.910;2024-01-25T02:30:27;8.30;99.90
31653;DHT22;18261;53.648;9.910;2024-01-25T02:32:52;8.30;99.90
31653;DHT22;18261;53.648;9.910;2024-01-25T02:35:18;8.30;99.90
31653;DHT22;18261;53.648;9.910;2024-01-25T02:37:44;8.30;99.90
31653;DHT22;18261;53.648;9.910;2024-01-25T02:40:10;8.30;99.90
31653;DHT22;18261;53.648;9.910;2024-01-25T02:42:36;8.30;99.90
31653;DHT22;18261;53.648;9.910;2024-01-25T02:45:01;8.30;99.90
31653;DHT22;18261;53.648;9.910;2024-01-25T02:47:27;8.30;99.90
31653;DHT22;18261;53.648;9.910;2024-01-25T02:49:52;8.30;99.90
31653;DHT22;18261;53.648;9.910;2024-01-25T02:52:18;8.30;99.90
31653;DHT22;18261;53.648;9.910;2024-01-25T02:54:43;8.40;99.90
31653;DHT22;18261;53.648;9.910;2024-01-25T02:57:09;8.30;99.90
31653;DHT22;18261;53.648;9.910;2024-01-25T02:59:35;8.30;99.90
31653;DHT22;18261;53.648;9.910;2024-01-25T03:02:01;8.20;99.90
31653;DHT22;18261;53.648;9.910;2024-01-25T03:04:26;8.30;99.90
31653;DHT22;18261;53.648;9.910;2024-01-25T03:06:52;8.30;99.90
31653;DHT22;18261;53.648;9.910;2024-01-25T03:09:17;8.30;99.90
31653;DHT22;18261;53.648;9.910;2024-01-25T03:11:43;8.30;99.90
31653;DHT22;18261;53.648;9.910;2024-01-25T03:14:08;8.20;99.90
31653;DHT22;18261;53.648;9.910;2024-01-25T03:16:34;8.30;99.90
31653;DHT22;18261;53.648;9.910;2024-01-25T03:19:00;8.30;99.90
31653;DHT22;18261;53.648;9.910;2024-01-25T03:21:25;8.30;99.90
31653;DHT22;18261;53.648;9.910;2024-01-25T03:23:51;8.20;99.90
31653;DHT22;18261;53.648;9.910;2024-01-25T03:26:17;8.20;99.90
31653;DHT22;18261;53.648;9.910;2024-01-25T03:28:42;8.20;99.90
31653;DHT22;18261;53.648;9.910;2024-01-25T03:31:08;8.20;99.90
31653;DHT22;18261;53.648;9.910;2024-01-25T03:33:33;8.20;99.90
31653;DHT22;18261;53.648;9.910;2024-01-25T03:36:05;8.30;99.90
31653;DHT22;18261;53.648;9.910;2024-01-25T03:38:31;8.20;99.90
31653;DHT22;18261;53.648;9.910;2024-01-25T03:40:57;8.20;99.90
31653;DHT22;18261;53.648;9.910;2024-01-25T03:43:24;8.20;99.90
31653;DHT22;18261;53.648;9.910;2024-01-25T03:45:50;8.20;99.90
31653;DHT22;18261;53.648;9.910;2024-01-25T03:48:16;8.20;99.90
31653;DHT22;18261;53.648;9.910;2024-01-25T03:50:42;8.20;99.90
31653;DHT22;18261;53.648;9.910;2024-01-25T03:53:07;8.30;99.90
31653;DHT22;18261;53.648;9.910;2024-01-25T03:55:33;8.20;99.90
31653;DHT22;18261;53.648;9.910;2024-01-25T03:57:58;8.30;99.90
31653;DHT22;18261;53.648;9.910;2024-01-25T04:00:24;8.20;99.90
31653;DHT22;18261;53.648;9.910;2024-01-25T04:02:50;8.20;99.90
31653;DHT22;18261;53.648;9.910;2024-01-25T04:05:16;8.20;99.90
31653;DHT22;18261;53.648;9.910;2024-01-25T04:07:41;8.20;99.90
31653;DHT22;18261;53.648;9.910;2024-01-25T04:10:07;8.20;99.90
31653;DHT22;18261;53.648;9.910;2024-01-25T04:12:33;8.20;99.90
31653;DHT22;18261;53.648;9.910;2024-01-25T04:14:59;8.20;99.90
31653;DHT22;18261;53.648;9.910;2024-01-25T04:17:25;8.20;99.90
31653;DHT22;18261;53.648;9.910;2024-01-25T04:19:51;8.20;99.90
31653;DHT22;18261;53.648;9.910;2024-01-25T04:22:16;8.30;99.90
31653;DHT22;18261;53.648;9.910;2024-01-25T04:24:42;8.20;99.90
31653;DHT22;18261;53.648;9.910;2024-01-25T04:27:09;8.20;99.90
31653;DHT22;18261;53.648;9.910;2024-01-25T04:29:39;8.20;99.90
31653;DHT22;18261;53.648;9.910;2024-01-25T04:32:05;8.20;99.90
31653;DHT22;18261;53.648;9.910;2024-01-25T04:34:31;8.20;99.90
31653;DHT22;18261;53.648;9.910;2024-01-25T04:36:56;8.20;99.90
31653;DHT22;18261;53.648;9.910;2024-01-25T04:39:22;8.20;99.90
31653;DHT22;18261;53.648;9.910;2024-01-25T04:41:48;8.20;99.90
31653;DHT22;18261;53.648;9.910;2024-01-25T04:44:13;8.20;99.90
31653;DHT22;18261;53.648;9.910;2024-01-25T04:46:39;8.20;99.90
31653;DHT22;18261;53.648;9.910;2024-01-25T04:49:05;8.20;99.90
31653;DHT22;18261;53.648;9.910;2024-01-25T04:51:30;8.10;99.90
31653;DHT22;18261;53.648;9.910;2024-01-25T04:53:56;8.10;99.90
31653;DHT22;18261;53.648;9.910;2024-01-25T04:56:21;8.10;99.90
31653;DHT22;18261;53.648;9.910;2024-01-25T04:58:47;8.10;99.90
31653;DHT22;18261;53.648;9.910;2024-01-25T05:01:12;8.10;99.90
31653;DHT22;18261;53.648;9.910;2024-01-25T05:03:38;8.10;99.90
31653;DHT22;18261;53.648;9.910;2024-01-25T05:06:04;8.10;99.90
31653;DHT22;18261;53.648;9.910;2024-01-25T05:08:29;8.00;99.90
31653;DHT22;18261;53.648;9.910;2024-01-25T05:10:55;8.00;99.90
31653;DHT22;18261;53.648;9.910;2024-01-25T05:13:20;8.00;99.90
31653;DHT22;18261;53.648;9.910;2024-01-25T05:15:46;8.00;99.90
31653;DHT22;18261;53.648;9.910;2024-01-25T05:18:11;7.90;99.90
31653;DHT22;18261;53.648;9.910;2024-01-25T05:20:37;7.90;99.90
31653;DHT22;18261;53.648;9.910;2024-01-25T05:23:04;7.80;99.90
31653;DHT22;18261;53.648;9.910;2024-01-25T05:25:30;7.80;99.90
31653;DHT22;18261;53.648;9.910;2024-01-25T05:27:56;7.70;99.90
31653;DHT22;18261;53.648;9.910;2024-01-25T05:30:22;7.70;99.90
31653;DHT22;18261;53.648;9.910;2024-01-25T05:32:48;7.70;99.90
31653;DHT22;18261;53.648;9.910;2024-01-25T05:35:15;7.70;99.90
31653;DHT22;18261;53.648;9.910;2024-01-25T05:37:41;7.70;99.90
31653;DHT22;18261;53.648;9.910;2024-01-25T05:40:08;7.70;99.90
31653;DHT22;18261;53.648;9.910;2024-01-25T05:42:35;7.70;99.90
31653;DHT22;18261;53.648;9.910;2024-01-25T05:45:01;7.70;99.90
31653;DHT22;18261;53.648;9.910;2024-01-25T05:47:26;7.70;99.90
31653;DHT22;18261;53.648;9.910;2024-01-25T05:49:52;7.70;99.90
31653;DHT22;18261;53.648;9.910;2024-01-25T05:52:18;7.80;99.90
31653;DHT22;18261;53.648;9.910;2024-01-25T05:54:43;7.70;99.90
31653;DHT22;18261;53.648;9.910;2024-01-25T05:57:09;7.70;99.90
31653;DHT22;18261;53.648;9.910;2024-01-25T05:59:35;7.80;99.90
31653;DHT22;18261;53.648;9.910;2024-01-25T06:02:01;7.70;99.90
31653;DHT22;18261;53.648;9.910;2024-01-25T06:04:26;7.80;99.90
31653;DHT22;18261;53.648;9.910;2024-01-25T06:06:52;7.80;99.90
31653;DHT22;18261;53.648;9.910;2024-01-25T06:09:17;7.80;99.90
31653;DHT22;18261;53.648;9.910;2024-01-25T06:11:43;7.80;99.90
31653;DHT22;18261;53.648;9.910;2024-01-25T06:14:09;7.90;99.90
31653;DHT22;18261;53.648;9.910;2024-01-25T06:16:34;7.80;99.90
31653;DHT22;18261;53.648;9.910;2024-01-25T06:19:01;7.90;99.90
31653;DHT22;18261;53.648;9.910;2024-01-25T06:21:27;7.90;99.90
31653;DHT22;18261;53.648;9.910;2024-01-25T06:23:53;7.90;99.90
31653;DHT22;18261;53.648;9.910;2024-01-25T06:26:19;8.00;99.90
31653;DHT22;18261;53.648;9.910;2024-01-25T06:28:44;7.90;99.90
31653;DHT22;18261;53.648;9.910;2024-01-25T06:31:12;8.00;99.90
31653;DHT22;18261;53.648;9.910;2024-01-25T06:33:37;7.90;99.90
31653;DHT22;18261;53.648;9.910;2024-01-25T06:36:03;7.90;99.90
31653;DHT22;18261;53.648;9.910;2024-01-25T06:38:28;7.90;99.90
31653;DHT22;18261;53.648;9.910;2024-01-25T06:40:54;7.90;99.90
31653;DHT22;18261;53.648;9.910;2024-01-25T06:43:19;7.90;99.90
31653;DHT22;18261;53.648;9.910;2024-01-25T06:45:45;7.90;99.90
31653;DHT22;18261;53.648;9.910;2024-01-25T06:48:11;7.90;99.90
31653;DHT22;18261;53.648;9.910;2024-01-25T06:50:36;7.90;99.90
31653;DHT22;18261;53.648;9.910;2024-01-25T06:53:03;7.90;99.90
31653;DHT22;18261;53.648;9.910;2024-01-25T06:55:29;7.90;99.90
31653;DHT22;18261;53.648;9.910;2024-01-25T06:57:54;7.90;99.90
31653;DHT22;18261;53.648;9.910;2024-01-25T07:00:20;7.90;99.90
31653;DHT22;18261;53.648;9.910;2024-01-25T07:02:46;7.90;99.90
31653;DHT22;18261;53.648;9.910;2024-01-25T07:05:12;7.90;99.90
31653;DHT22;18261;53.648;9.910;2024-01-25T07:07:38;7.90;99.90
31653;DHT22;18261;53.648;9.910;2024-01-25T07:10:06;7.90;99.90
31653;DHT22;18261;53.648;9.910;2024-01-25T07:12:31;7.90;99.90
31653;DHT22;18261;53.648;9.910;2024-01-25T07:14:57;7.90;99.90
31653;DHT22;18261;53.648;9.910;2024-01-25T07:17:23;8.00;99.90
31653;DHT22;18261;53.648;9.910;2024-01-25T07:19:48;8.00;99.90
31653;DHT22;18261;53.648;9.910;2024-01-25T07:22:14;7.90;99.90
31653;DHT22;18261;53.648;9.910;2024-01-25T07:24:40;7.90;99.90
31653;DHT22;18261;53.648;9.910;2024-01-25T07:27:06;7.90;99.90
31653;DHT22;18261;53.648;9.910;2024-01-25T07:29:32;8.00;99.90
31653;DHT22;18261;53.648;9.910;2024-01-25T07:31:57;7.90;99.90
31653;DHT22;18261;53.648;9.910;2024-01-25T07:34:23;8.00;99.90
31653;DHT22;18261;53.648;9.910;2024-01-25T07:36:48;8.00;99.90
31653;DHT22;18261;53.648;9.910;2024-01-25T07:39:14;8.00;99.90
31653;DHT22;18261;53.648;9.910;2024-01-25T07:41:40;7.90;99.90
31653;DHT22;18261;53.648;9.910;2024-01-25T07:44:05;7.90;99.90
31653;DHT22;18261;53.648;9.910;2024-01-25T07:46:31;7.90;99.90
31653;DHT22;18261;53.648;9.910;2024-01-25T07:48:57;7.90;99.90
31653;DHT22;18261;53.648;9.910;2024-01-25T07:51:22;7.90;99.90
31653;DHT22;18261;53.648;9.910;2024-01-25T07:53:48;8.00;99.90
31653;DHT22;18261;53.648;9.910;2024-01-25T07:56:13;8.00;99.90
31653;DHT22;18261;53.648;9.910;2024-01-25T07:58:40;8.00;99.90
31653;DHT22;18261;53.648;9.910;2024-01-25T08:01:05;8.00;99.90
31653;DHT22;18261;53.648;9.910;2024-01-25T08:03:32;8.10;99.90
31653;DHT22;18261;53.648;9.910;2024-01-25T08:05:58;8.00;99.90
31653;DHT22;18261;53.648;9.910;2024-01-25T08:08:24;8.00;99.90
31653;DHT22;18261;53.648;9.910;2024-01-25T08:10:50;8.10;99.90
31653;DHT22;18261;53.648;9.910;2024-01-25T08:13:15;8.10;99.90
31653;DHT22;18261;53.648;9.910;2024-01-25T08:15:41;8.10;99.90
31653;DHT22;18261;53.648;9.910;2024-01-25T08:18:07;8.10;99.90
31653;DHT22;18261;53.648;9.910;2024-01-25T08:20:32;8.10;99.90
31653;DHT22;18261;53.648;9.910;2024-01-25T08:22:58;8.20;99.90
31653;DHT22;18261;53.648;9.910;2024-01-25T08:25:25;8.20;99.90
31653;DHT22;18261;53.648;9.910;2024-01-25T08:27:50;8.20;99.90
31653;DHT22;18261;53.648;9.910;2024-01-25T08:30:16;8.20;99.90
31653;DHT22;18261;53.648;9.910;2024-01-25T08:32:42;8.30;99.90
31653;DHT22;18261;53.648;9.910;2024-01-25T08:35:08;8.20;99.90
31653;DHT22;18261;53.648;9.910;2024-01-25T08:37:42;8.30;99.90
31653;DHT22;18261;53.648;9.910;2024-01-25T08:40:19;8.30;99.90
31653;DHT22;18261;53.648;9.910;2024-01-25T08:42:45;8.30;99.90
31653;DHT22;18261;53.648;9.910;2024-01-25T08:45:10;8.30;99.90
31653;DHT22;18261;53.648;9.910;2024-01-25T08:47:36;8.30;99.90
31653;DHT22;18261;53.648;9.910;2024-01-25T08:50:02;8.30;99.90
31653;DHT22;18261;53.648;9.910;2024-01-25T08:52:29;8.40;99.90
31653;DHT22;18261;53.648;9.910;2024-01-25T08:54:54;8.40;99.90
31653;DHT22;18261;53.648;9.910;2024-01-25T08:57:20;8.50;99.90
31653;DHT22;18261;53.648;9.910;2024-01-25T08:59:46;8.40;99.90
31653;DHT22;18261;53.648;9.910;2024-01-25T09:02:11;8.40;99.90
31653;DHT22;18261;53.648;9.910;2024-01-25T09:04:37;8.40;99.90
31653;DHT22;18261;53.648;9.910;2024-01-25T09:07:03;8.40;99.90
31653;DHT22;18261;53.648;9.910;2024-01-25T09:09:29;8.40;99.90
31653;DHT22;18261;53.648;9.910;2024-01-25T09:11:54;8.40;99.90
31653;DHT22;18261;53.648;9.910;2024-01-25T09:14:21;8.30;99.90
31653;DHT22;18261;53.648;9.910;2024-01-25T09:16:47;8.30;99.90
31653;DHT22;18261;53.648;9.910;2024-01-25T09:19:13;8.30;99.90
31653;DHT22;18261;53.648;9.910;2024-01-25T09:21:39;8.40;99.90
31653;DHT22;18261;53.648;9.910;2024-01-25T09:24:07;8.40;99.90
31653;DHT22;18261;53.648;9.910;2024-01-25T09:26:33;8.40;99.90
31653;DHT22;18261;53.648;9.910;2024-01-25T09:28:58;8.40;99.90
31653;DHT22;18261;53.648;9.910;2024-01-25T09:31:24;8.40;99.90
31653;DHT22;18261;53.648;9.910;2024-01-25T09:33:50;8.40;99.90
31653;DHT22;18261;53.648;9.910;2024-01-25T09:36:17;8.40;99.90
31653;DHT22;18261;53.648;9.910;2024-01-25T09:38:43;8.40;99.90
31653;DHT22;18261;53.648;9.910;2024-01-25T09:41:08;8.40;99.90
31653;DHT22;18261;53.648;9.910;2024-01-25T09:43:35;8.50;99.90
31653;DHT22;18261;53.648;9.910;2024-01-25T09:46:02;8.50;99.90
31653;DHT22;18261;53.648;9.910;2024-01-25T09:48:27;8.50;99.90
31653;DHT22;18261;53.648;9.910;2024-01-25T09:50:55;8.60;99.90
31653;DHT22;18261;53.648;9.910;2024-01-25T09:53:22;8.60;99.90
31653;DHT22;18261;53.648;9.910;2024-01-25T09:56:00;8.50;99.90
31653;DHT22;18261;53.648;9.910;2024-01-25T09:58:37;8.50;99.90
31653;DHT22;18261;53.648;9.910;2024-01-25T10:01:03;8.50;99.90
31653;DHT22;18261;53.648;9.910;2024-01-25T10:03:28;8.50;99.90
31653;DHT22;18261;53.648;9.910;2024-01-25T10:05:55;8.50;99.90
31653;DHT22;18261;53.648;9.910;2024-01-25T10:08:22;8.50;99.90
31653;DHT22;18261;53.648;9.910;2024-01-25T10:10:49;8.60;99.90
31653;DHT22;18261;53.648;9.910;2024-01-25T10:13:14;8.60;99.90
31653;DHT22;18261;53.648;9.910;2024-01-25T10:15:40;8.60;99.90
31653;DHT22;18261;53.648;9.910;2024-01-25T10:18:07;8.60;99.90
31653;DHT22;18261;53.648;9.910;2024-01-25T10:20:44;8.70;99.90
31653;DHT22;18261;53.648;9.910;2024-01-25T10:23:10;8.70;99.90
31653;DHT22;18261;53.648;9.910;2024-01-25T10:25:36;8.60;99.90
31653;DHT22;18261;53.648;9.910;2024-01-25T10:28:03;8.70;99.90
31653;DHT22;18261;53.648;9.910;2024-01-25T10:30:32;8.60;99.90
31653;DHT22;18261;53.648;9.910;2024-01-25T10:32:59;8.60;99.90
31653;DHT22;18261;53.648;9.910;2024-01-25T10:35:25;8.70;99.90
31653;DHT22;18261;53.648;9.910;2024-01-25T10:37:52;8.70;99.90
31653;DHT22;18261;53.648;9.910;2024-01-25T10:40:21;8.70;99.90
31653;DHT22;18261;53.648;9.910;2024-01-25T10:42:47;8.70;99.90
31653;DHT22;18261;53.648;9.910;2024-01-25T10:45:13;8.70;99.90
31653;DHT22;18261;53.648;9.910;2024-01-25T10:47:39;8.80;99.90
31653;DHT22;18261;53.648;9.910;2024-01-25T10:50:07;8.80;99.90
31653;DHT22;18261;53.648;9.910;2024-01-25T10:52:38;8.80;99.90
31653;DHT22;18261;53.648;9.910;2024-01-25T10:55:05;8.70;99.90
31653;DHT22;18261;53.648;9.910;2024-01-25T10:57:39;8.80;99.90
31653;DHT22;18261;53.648;9.910;2024-01-25T11:00:13;8.80;99.90
31653;DHT22;18261;53.648;9.910;2024-01-25T11:02:40;8.80;99.90
31653;DHT22;18261;53.648;9.910;2024-01-25T11:05:14;8.80;99.90
31653;DHT22;18261;53.648;9.910;2024-01-25T11:07:49;8.80;99.90
31653;DHT22;18261;53.648;9.910;2024-01-25T11:10:19;8.80;99.90
31653;DHT22;18261;53.648;9.910;2024-01-25T11:13:00;8.80;99.90
31653;DHT22;18261;53.648;9.910;2024-01-25T11:15:34;8.80;99.90
31653;DHT22;18261;53.648;9.910;2024-01-25T11:18:01;8.80;99.90
31653;DHT22;18261;53.648;9.910;2024-01-25T11:20:29;8.80;99.90
31653;DHT22;18261;53.648;9.910;2024-01-25T11:23:05;8.80;99.90
31653;DHT22;18261;53.648;9.910;2024-01-25T11:25:32;8.80;99.90
31653;DHT22;18261;53.648;9.910;2024-01-25T11:27:59;8.80;99.90
31653;DHT22;18261;53.648;9.910;2024-01-25T11:30:28;8.80;99.90
31653;DHT22;18261;53.648;9.910;2024-01-25T11:32:54;8.90;99.90
31653;DHT22;18261;53.648;9.910;2024-01-25T11:35:21;8.90;99.90
31653;DHT22;18261;53.648;9.910;2024-01-25T11:37:48;8.80;99.90
31653;DHT22;18261;53.648;9.910;2024-01-25T11:40:15;8.80;99.90
31653;DHT22;18261;53.648;9.910;2024-01-25T11:42:47;8.80;99.90
31653;DHT22;18261;53.648;9.910;2024-01-25T11:45:13;8.90;99.90
31653;DHT22;18261;53.648;9.910;2024-01-25T11:47:40;9.00;99.90
31653;DHT22;18261;53.648;9.910;2024-01-25T11:50:07;9.00;99.90
31653;DHT22;18261;53.648;9.910;2024-01-25T11:52:33;9.00;99.90
31653;DHT22;18261;53.648;9.910;2024-01-25T11:55:09;9.00;99.90
31653;DHT22;18261;53.648;9.910;2024-01-25T11:57:40;9.00;99.90
31653;DHT22;18261;53.648;9.910;2024-01-25T12:00:10;9.00;99.90
31653;DHT22;18261;53.648;9.910;2024-01-25T12:02:38;9.00;99.90
31653;DHT22;18261;53.648;9.910;2024-01-25T12:05:04;8.90;99.90
31653;DHT22;18261;53.648;9.910;2024-01-25T12:07:31;9.00;99.90
31653;DHT22;18261;53.648;9.910;2024-01-25T12:12:23;9.10;99.90
31653;DHT22;18261;53.648;9.910;2024-01-25T12:14:48;9.10;99.90
31653;DHT22;18261;53.648;9.910;2024-01-25T12:17:14;9.10;99.90
31653;DHT22;18261;53.648;9.910;2024-01-25T12:19:40;9.10;99.90
31653;DHT22;18261;53.648;9.910;2024-01-25T12:22:05;9.10;99.90
31653;DHT22;18261;53.648;9.910;2024-01-25T12:24:31;9.10;99.90
31653;DHT22;18261;53.648;9.910;2024-01-25T12:26:56;9.10;99.90
31653;DHT22;18261;53.648;9.910;2024-01-25T12:29:22;9.10;99.90
31653;DHT22;18261;53.648;9.910;2024-01-25T12:31:48;9.10;99.90
31653;DHT22;18261;53.648;9.910;2024-01-25T12:34:14;9.10;99.90
31653;DHT22;18261;53.648;9.910;2024-01-25T12:36:43;9.00;99.90
31653;DHT22;18261;53.648;9.910;2024-01-25T12:39:08;9.10;99.90
31653;DHT22;18261;53.648;9.910;2024-01-25T12:41:35;9.10;99.90
31653;DHT22;18261;53.648;9.910;2024-01-25T12:44:01;9.10;99.90
31653;DHT22;18261;53.648;9.910;2024-01-25T12:46:26;9.10;99.90
31653;DHT22;18261;53.648;9.910;2024-01-25T12:48:52;9.10;99.90
31653;DHT22;18261;53.648;9.910;2024-01-25T12:51:20;9.10;99.90
31653;DHT22;18261;53.648;9.910;2024-01-25T12:53:49;9.10;99.90
31653;DHT22;18261;53.648;9.910;2024-01-25T12:56:15;9.10;99.90
31653;DHT22;18261;53.648;9.910;2024-01-25T12:58:41;9.10;99.90
31653;DHT22;18261;53.648;9.910;2024-01-25T13:01:06;9.10;99.90
31653;DHT22;18261;53.648;9.910;2024-01-25T13:03:32;9.10;99.90
31653;DHT22;18261;53.648;9.910;2024-01-25T13:05:58;9.10;99.90
31653;DHT22;18261;53.648;9.910;2024-01-25T13:08:23;9.10;99.90
31653;DHT22;18261;53.648;9.910;2024-01-25T13:10:49;9.10;99.90
31653;DHT22;18261;53.648;9.910;2024-01-25T13:13:15;9.10;99.90
31653;DHT22;18261;53.648;9.910;2024-01-25T13:15:40;9.10;99.90
31653;DHT22;18261;53.648;9.910;2024-01-25T13:18:06;9.10;99.90
31653;DHT22;18261;53.648;9.910;2024-01-25T13:20:31;9.10;99.90
31653;DHT22;18261;53.648;9.910;2024-01-25T13:22:57;9.00;99.90
31653;DHT22;18261;53.648;9.910;2024-01-25T13:25:23;9.00;99.90
31653;DHT22;18261;53.648;9.910;2024-01-25T13:27:48;9.00;99.90
31653;DHT22;18261;53.648;9.910;2024-01-25T13:30:14;9.00;99.90
31653;DHT22;18261;53.648;9.910;2024-01-25T13:32:39;8.90;99.90
31653;DHT22;18261;53.648;9.910;2024-01-25T13:35:05;9.00;99.90
31653;DHT22;18261;53.648;9.910;2024-01-25T13:37:31;9.10;99.90
31653;DHT22;18261;53.648;9.910;2024-01-25T13:39:57;9.10;99.90
31653;DHT22;18261;53.648;9.910;2024-01-25T13:42:23;9.00;99.90
31653;DHT22;18261;53.648;9.910;2024-01-25T13:44:48;9.10;99.90
31653;DHT22;18261;53.648;9.910;2024-01-25T13:47:14;9.20;99.90
31653;DHT22;18261;53.648;9.910;2024-01-25T13:49:39;9.30;99.90
31653;DHT22;18261;53.648;9.910;2024-01-25T13:52:05;9.40;99.90
31653;DHT22;18261;53.648;9.910;2024-01-25T13:54:31;9.40;99.90
31653;DHT22;18261;53.648;9.910;2024-01-25T13:56:56;9.50;99.90
31653;DHT22;18261;53.648;9.910;2024-01-25T13:59:22;9.70;99.90
31653;DHT22;18261;53.648;9.910;2024-01-25T14:01:47;10.00;99.90
31653;DHT22;18261;53.648;9.910;2024-01-25T14:04:14;10.30;96.10
31653;DHT22;18261;53.648;9.910;2024-01-25T14:06:40;10.60;90.30
31653;DHT22;18261;53.648;9.910;2024-01-25T14:09:06;10.80;87.90
31653;DHT22;18261;53.648;9.910;2024-01-25T14:11:32;11.00;66.70
31653;DHT22;18261;53.648;9.910;2024-01-25T14:13:57;11.20;61.90
31653;DHT22;18261;53.648;9.910;2024-01-25T14:16:23;11.20;47.60
31653;DHT22;18261;53.648;9.910;2024-01-25T14:18:48;11.40;52.10
31653;DHT22;18261;53.648;9.910;2024-01-25T14:21:14;11.60;39.00
31653;DHT22;18261;53.648;9.910;2024-01-25T14:23:39;11.60;37.00
31653;DHT22;18261;53.648;9.910;2024-01-25T14:26:05;11.60;35.70
31653;DHT22;18261;53.648;9.910;2024-01-25T14:28:31;11.60;31.00
31653;DHT22;18261;53.648;9.910;2024-01-25T14:30:56;11.50;38.50
31653;DHT22;18261;53.648;9.910;2024-01-25T14:33:22;11.40;44.10
31653;DHT22;18261;53.648;9.910;2024-01-25T14:35:47;11.30;43.50
31653;DHT22;18261;53.648;9.910;2024-01-25T14:38:13;11.10;53.90
31653;DHT22;18261;53.648;9.910;2024-01-25T14:40:39;11.00;59.30
31653;DHT22;18261;53.648;9.910;2024-01-25T14:43:05;10.80;61.00
31653;DHT22;18261;53.648;9.910;2024-01-25T14:45:31;10.70;72.70
31653;DHT22;18261;53.648;9.910;2024-01-25T14:47:58;10.70;77.70
31653;DHT22;18261;53.648;9.910;2024-01-25T14:50:24;10.60;77.70
31653;DHT22;18261;53.648;9.910;2024-01-25T14:52:50;10.60;76.80
31653;DHT22;18261;53.648;9.910;2024-01-25T14:55:15;10.60;81.80
31653;DHT22;18261;53.648;9.910;2024-01-25T14:57:41;10.60;69.20
31653;DHT22;18261;53.648;9.910;2024-01-25T15:00:07;10.60;47.00
31653;DHT22;18261;53.648;9.910;2024-01-25T15:02:33;10.40;52.10
31653;DHT22;18261;53.648;9.910;2024-01-25T15:04:59;10.30;51.60
31653;DHT22;18261;53.648;9.910;2024-01-25T15:07:24;10.00;59.10
31653;DHT22;18261;53.648;9.910;2024-01-25T15:09:50;9.80;72.70
31653;DHT22;18261;53.648;9.910;2024-01-25T15:12:16;9.70;71.90
31653;DHT22;18261;53.648;9.910;2024-01-25T15:14:42;9.60;79.50
31653;DHT22;18261;53.648;9.910;2024-01-25T15:17:07;9.60;80.70
31653;DHT22;18261;53.648;9.910;2024-01-25T15:19:33;9.60;79.10
31653;DHT22;18261;53.648;9.910;2024-01-25T15:21:59;9.50;81.80
31653;DHT22;18261;53.648;9.910;2024-01-25T15:24:24;9.50;87.40
31653;DHT22;18261;53.648;9.910;2024-01-25T15:26:51;9.50;86.50
31653;DHT22;18261;53.648;9.910;2024-01-25T15:29:17;9.40;87.10
31653;DHT22;18261;53.648;9.910;2024-01-25T15:31:43;9.30;90.90
31653;DHT22;18261;53.648;9.910;2024-01-25T15:34:08;9.30;91.90
31653;DHT22;18261;53.648;9.910;2024-01-25T15:36:34;9.20;93.40
31653;DHT22;18261;53.648;9.910;2024-01-25T15:39:01;9.20;94.20
31653;DHT22;18261;53.648;9.910;2024-01-25T15:41:29;9.20;94.40